METAR Data
IDs: Format: Raw Decoded Include TAF

Data at: 1330 UTC 14 Dec 2019

KBPK 141311Z AUTO VRB06KT 10SM OVC015 05/04 A2979 RMK AO2 T00500039 $
KBPK 141253Z AUTO 33007KT 290V360 10SM OVC012 05/03 A2979 RMK AO2 SLP089 T00500033
KBPK 141218Z AUTO 34008KT 10SM BKN014 05/03 A2977 RMK AO2 T00500033
KBPK 141153Z AUTO VRB04KT 10SM CLR 03/02 A2975 RMK AO2 SLP078 60000 T00280022 10044 20011 55000
KBPK 141053Z AUTO 00000KT 10SM CLR 03/02 A2972 RMK AO2 SLP066 T00280017
KBPK 140953Z AUTO 21004KT 10SM BKN110 02/02 A2972 RMK AO2 RAB0859E09 SLP067 P0000 T00220017
KBPK 140853Z AUTO 00000KT 10SM SCT090 OVC110 04/02 A2975 RMK AO2 SLP076 T00440022 56007
KBPK 140753Z AUTO 21004KT 10SM CLR 02/01 A2975 RMK AO2 SLP077 T00170011
KBPK 140653Z AUTO 00000KT 10SM CLR 02/01 A2977 RMK AO2 SLP082 T00220011
KBPK 140553Z AUTO 22003KT 10SM FEW110 03/01 A2977 RMK AO2 SLP084 T00330011 10067 20022 401060017 58019
KBPK 140453Z AUTO 23003KT 10SM BKN110 04/02 A2981 RMK AO2 SLP095 T00440017
KBPK 140353Z AUTO 19003KT 10SM OVC110 03/01 A2982 RMK AO2 SLP100 T00330011
KBPK 140253Z AUTO 00000KT 10SM SCT100 04/01 A2983 RMK AO2 SLP104 T00440011 53002
KBPK 140153Z AUTO 18003KT 10SM CLR 05/01 A2982 RMK AO2 SLP102 T00500006
KBPK 140053Z AUTO 18003KT 10SM CLR 06/01 A2982 RMK AO2 SLP102 T00560006
KBPK 132353Z AUTO 18003KT 10SM CLR 06/01 A2982 RMK AO2 SLP102 T00610006 10106 20056 56001
KBPK 132253Z AUTO 00000KT 10SM CLR 08/01 A2983 RMK AO2 SLP102 T00830011
KBPK 132153Z AUTO 18003KT 10SM CLR 09/01 A2982 RMK AO2 SLP099 T00940006 $
KBPK 132053Z AUTO 00000KT 10SM CLR 10/01 A2982 RMK AO2 SLP101 T01000006 56023
KBPK 131953Z AUTO 00000KT 10SM CLR 09/00 A2983 RMK AO2 SLP102 T00940000
KBPK 131853Z AUTO 00000KT 10SM CLR 09/00 A2986 RMK AO2 SLP112 T00940000
KBPK 131753Z AUTO 00000KT 10SM SCT050 BKN120 08/00 A2990 RMK AO2 SLP126 T00780000 10078 20017 58018
KBPK 131553Z AUTO 00000KT 10SM OVC050 05/00 A2996 RMK AO2 SLP148 T00500000
KBPK 131453Z AUTO 13003KT 10SM FEW055 SCT120 04/00 A2995 RMK AO2 SLP146 T00390000 58006
KBPK 131353Z AUTO 00000KT 10SM SCT060 02/00 A2997 RMK AO2 SLP153 T00220000
KBPK 131253Z AUTO 00000KT 10SM CLR 02/M01 A2996 RMK AO2 SLP149 T00221006
KBPK 131153Z AUTO 00000KT 10SM CLR 02/M01 A2997 RMK AO2 SLP152 T00171011 10033 20017 55016
KBPK 131053Z AUTO 00000KT 10SM FEW065 03/M01 A2996 RMK AO2 SLP149 T00281006
KBPK 130953Z AUTO 00000KT 10SM CLR 03/M01 A2999 RMK AO2 SLP157 T00331011
KBPK 130853Z AUTO 20003KT 10SM BKN110 03/M02 A3002 RMK AO2 SLP165 T00331017 56017
KBPK 130753Z AUTO 15004KT 10SM SCT120 03/M02 A3003 RMK AO2 SLP170 T00331022
KBPK 130653Z AUTO 18003KT 10SM CLR 03/M03 A3005 RMK AO2 SLP176 T00281028
KBPK 130553Z AUTO 00000KT 10SM CLR 03/M03 A3007 RMK AO2 SLP183 T00281033 10061 20022 401170011 58008
KBPK 130453Z AUTO 00000KT 10SM CLR 03/M03 A3008 RMK AO2 SLP187 T00281033
KBPK 130353Z AUTO 18004KT 10SM CLR 04/M04 A3009 RMK AO2 SLP191 T00391039
KBPK 130253Z AUTO 17004KT 10SM CLR 04/M04 A3009 RMK AO2 SLP193 T00441044 58008
KBPK 130153Z AUTO 00000KT 10SM CLR 04/M04 A3011 RMK AO2 SLP201 T00441044